^^
Station Historical Data
Daily Summary for January 13, 2018 Units:  English    Metric   Both
« Previous Day
Next Day »
Daily Weekly Monthly Yearly Custom
  High: Low: Average:
Temperature: 14.0 °F -11.2 °F -0.2 °F
Dew Point: -0.5 °F -14.2 °F -5.7 °F
Humidity: 91% 51% 79%
Wind Speed: 5.8mph 0.0mph 2.4mph
Wind Gust: 5.8mph - -
Wind- - West
Pressure: 30.50 in 30.37 in -
Precipitation: 0.00 in    
Historical Graphs
 
 
Tabular Data for January 13, 2018
Time Temperature Dew Point Pressure Wind Wind Speed Wind Gust Humidity Rainfall Rate (Hourly) solar Conditions
00:01 -0.4 °F -3.6 °F 30.37 in WSW 3.5 mph 3.5 mph 86% 0.00 in 0.0 W/m2 CLR
00:17 -2.2 °F -5.4 °F 30.37 in West 2.3 mph 2.3 mph 86% 0.00 in 0.0 W/m2 CLR
00:24 -2.2 °F -5.4 °F 30.37 in West 3.5 mph 3.5 mph 86% 0.00 in 0.0 W/m2 CLR
00:31 -2.2 °F -5.4 °F 30.37 in West 3.5 mph 3.5 mph 86% 0.00 in 0.0 W/m2 CLR
00:38 -2.2 °F -5.4 °F 30.38 in West 2.3 mph 2.3 mph 86% 0.00 in 0.0 W/m2 CLR
00:44 -2.2 °F -5.4 °F 30.38 in West 2.3 mph 2.3 mph 86% 0.00 in 0.0 W/m2 CLR
00:49 -2.2 °F -5.4 °F 30.38 in West 3.5 mph 3.5 mph 86% 0.00 in 0.0 W/m2 CLR
00:58 -2.2 °F -5.4 °F 30.38 in West 3.5 mph 3.5 mph 86% 0.00 in 0.0 W/m2 CLR
01:04 -2.2 °F -4.9 °F 30.38 in West 2.3 mph 2.3 mph 88% 0.00 in 0.0 W/m2 CLR
01:12 -2.2 °F -5.4 °F 30.38 in WSW 1.2 mph 1.2 mph 86% 0.00 in 0.0 W/m2 CLR
01:21 -2.2 °F -5.4 °F 30.38 in West 2.3 mph 2.3 mph 86% 0.00 in 0.0 W/m2 CLR
01:28 -2.2 °F -5.4 °F 30.38 in WSW 1.2 mph 1.2 mph 86% 0.00 in 0.0 W/m2 CLR
01:43 -2.2 °F -5.4 °F 30.39 in West 2.3 mph   86% 0.00 in 0.0 W/m2 CLR
02:08 -2.2 °F -5.4 °F 30.39 in West 3.5 mph 3.5 mph 86% 0.00 in 0.0 W/m2 CLR
02:13 -4.0 °F -7.1 °F 30.39 in WSW 3.5 mph 3.5 mph 86% 0.00 in 0.0 W/m2 CLR
02:29 -4.0 °F -6.7 °F 30.40 in West 3.5 mph 3.5 mph 88% 0.00 in 0.0 W/m2 CLR
02:38 -4.0 °F -7.1 °F 30.41 in West 3.5 mph 3.5 mph 86% 0.00 in 0.0 W/m2 CLR
02:51 -4.0 °F -7.1 °F 30.41 in WSW 3.5 mph 3.5 mph 86% 0.00 in 0.0 W/m2 CLR
03:15 -4.0 °F -7.1 °F 30.41 in West 3.5 mph 3.5 mph 86% 0.00 in 0.0 W/m2 CLR
03:21 -4.0 °F -7.1 °F 30.40 in West 3.5 mph 3.5 mph 86% 0.00 in 0.0 W/m2 CLR
03:31 -4.0 °F -7.1 °F 30.41 in West 3.5 mph 3.5 mph 86% 0.00 in 0.0 W/m2 CLR
03:42 -4.0 °F -7.1 °F 30.41 in WSW 3.5 mph 3.5 mph 86% 0.00 in 0.0 W/m2 CLR
03:49 -4.0 °F -7.1 °F 30.41 in West 3.5 mph 3.5 mph 86% 0.00 in 0.0 W/m2 CLR
04:01 -4.0 °F -7.1 °F 30.41 in SW 2.3 mph 2.3 mph 86% 0.00 in 0.0 W/m2 CLR
04:08 -4.0 °F -7.1 °F 30.41 in West 3.5 mph 3.5 mph 86% 0.00 in 0.0 W/m2 CLR
04:14 -4.0 °F -7.1 °F 30.42 in NNW 3.5 mph   86% 0.00 in 0.0 W/m2 CLR
04:37 -4.0 °F -6.7 °F 30.42 in West 3.5 mph 3.5 mph 88% 0.00 in 0.0 W/m2 CLR
04:46 -5.8 °F -8.9 °F 30.41 in West 2.3 mph 2.3 mph 86% 0.00 in 0.0 W/m2 CLR
04:54 -5.8 °F -8.9 °F 30.41 in West 2.3 mph 2.3 mph 86% 0.00 in 0.0 W/m2 CLR
05:10 -5.8 °F -8.4 °F 30.42 in WSW 2.3 mph 2.3 mph 88% 0.00 in 0.0 W/m2 CLR
05:18 -5.8 °F -8.4 °F 30.42 in WNW 2.3 mph   88% 0.00 in 0.0 W/m2 CLR
05:28 -5.8 °F -8.4 °F 30.43 in West 2.3 mph 2.3 mph 88% 0.00 in 0.0 W/m2 CLR
05:34 -5.8 °F -8.4 °F 30.43 in WNW 2.3 mph 2.3 mph 88% 0.00 in 0.0 W/m2 CLR
05:52 -5.8 °F -8.4 °F 30.43 in West 3.5 mph 3.5 mph 88% 0.00 in 0.0 W/m2 CLR
06:04 -5.8 °F -8.4 °F 30.43 in West 3.5 mph 3.5 mph 88% 0.00 in 0.0 W/m2 CLR
06:20 -5.8 °F -8.4 °F 30.44 in West 3.5 mph 3.5 mph 88% 0.00 in 0.0 W/m2 CLR
06:40 -5.8 °F -8.4 °F 30.44 in West 2.3 mph 2.3 mph 88% 0.00 in 0.0 W/m2 CLR
06:49 -5.8 °F -8.4 °F 30.45 in WNW 2.3 mph 2.3 mph 88% 0.00 in 0.0 W/m2 CLR
07:01 -7.6 °F -10.2 °F 30.45 in WSW 3.5 mph 3.5 mph 88% 0.00 in 0.0 W/m2 CLR
07:11 -5.8 °F -8.4 °F 30.45 in West 3.5 mph 3.5 mph 88% 0.00 in 0.0 W/m2 CLR
07:24 -7.6 °F -10.2 °F 30.46 in WNW 2.3 mph 2.3 mph 88% 0.00 in 16.9 W/m2 CLR
07:31 -7.6 °F -10.2 °F 30.47 in West 3.5 mph 3.5 mph 88% 0.00 in 66.3 W/m2 CLR
07:42 -5.8 °F -8.0 °F 30.46 in West 3.5 mph 3.5 mph 90% 0.00 in 112.8 W/m2 CLR
07:50 -7.6 °F -10.2 °F 30.47 in West 3.5 mph 3.5 mph 88% 0.00 in 121.9 W/m2 CLR
07:55 -7.6 °F -10.2 °F 30.47 in West 2.3 mph   88% 0.00 in 121.9 W/m2 CLR
08:06 -5.8 °F -8.4 °F 30.47 in West 3.5 mph   88% 0.00 in 52.0 W/m2 CLR
08:15 -5.8 °F -8.4 °F 30.47 in West 2.3 mph 2.3 mph 88% 0.00 in 70.0 W/m2 CLR
08:22 -5.8 °F -8.4 °F 30.47 in West 2.3 mph 2.3 mph 88% 0.00 in 145.1 W/m2 CLR
08:51 -4.0 °F -8.4 °F 30.48 in NW 3.5 mph 3.5 mph 81% 0.00 in 143.0 W/m2 CLR
08:57 -2.2 °F -6.6 °F 30.48 in North 3.5 mph 3.5 mph 81% 0.00 in 164.3 W/m2 CLR
09:11 -2.2 °F -6.9 °F 30.49 in WNW 3.5 mph 3.5 mph 80% 0.00 in 169.4 W/m2 CLR
09:23 -0.4 °F -5.6 °F 30.49 in NW 3.5 mph 3.5 mph 78% 0.00 in 180.5 W/m2 CLR
09:28 -0.4 °F -6.2 °F 30.49 in NW 3.5 mph 3.5 mph 76% 0.00 in 194.6 W/m2 CLR
09:46 1.4 °F -5.0 °F 30.49 in WNW 3.5 mph 3.5 mph 74% 0.00 in 842.0 W/m2 CLR
10:06 3.2 °F -4.1 °F 30.49 in West 2.3 mph 2.3 mph 71% 0.00 in 284.0 W/m2 CLR
10:17 3.2 °F -4.4 °F 30.49 in West 3.5 mph 3.5 mph 70% 0.00 in 300.0 W/m2 CLR
10:31 3.2 °F -4.4 °F 30.49 in NNW 3.5 mph 3.5 mph 70% 0.00 in 861.2 W/m2 CLR
10:37 5.0 °F -3.0 °F 30.49 in WNW 3.5 mph 3.5 mph 69% 0.00 in 847.1 W/m2 CLR
10:45 5.0 °F -2.7 °F 30.49 in NW 4.6 mph 4.6 mph 70% 0.00 in 335.0 W/m2 CLR
10:51 5.0 °F -3.0 °F 30.49 in NW 3.5 mph 3.5 mph 69% 0.00 in 341.0 W/m2 CLR
11:05 6.8 °F -2.5 °F 30.49 in NW 4.6 mph 4.6 mph 65% 0.00 in 354.0 W/m2 CLR
11:11 6.8 °F -2.5 °F 30.48 in ENE 3.5 mph 3.5 mph 65% 0.00 in 358.0 W/m2 CLR
11:17 8.6 °F -0.8 °F 30.48 in South 3.5 mph 3.5 mph 65% 0.00 in 886.5 W/m2 CLR
11:22 6.8 °F -3.1 °F 30.48 in NW 3.5 mph 3.5 mph 63% 0.00 in 889.5 W/m2 CLR
11:31 8.6 °F -1.4 °F 30.48 in NW 4.6 mph 4.6 mph 63% 0.00 in 889.5 W/m2 CLR
11:37 8.6 °F -1.4 °F 30.47 in NNW 3.5 mph 3.5 mph 63% 0.00 in 372.0 W/m2 CLR
11:42 8.6 °F -1.4 °F 30.48 in NNW 3.5 mph 3.5 mph 63% 0.00 in 891.5 W/m2 CLR
11:56 8.6 °F -2.1 °F 30.47 in West 4.6 mph 4.6 mph 61% 0.00 in 892.5 W/m2 CLR
12:08 8.6 °F -2.1 °F 30.47 in West 4.6 mph 4.6 mph 61% 0.00 in 841.0 W/m2 CLR
12:15 8.6 °F -2.1 °F 30.47 in West 4.6 mph 4.6 mph 61% 0.00 in 861.2 W/m2 CLR
12:24 10.4 °F -0.8 °F 30.46 in West 3.5 mph 3.5 mph 60% 0.00 in 771.3 W/m2 CLR
12:32 10.4 °F -1.1 °F 30.47 in NW 3.5 mph 3.5 mph 59% 0.00 in 368.0 W/m2 CLR
12:42 10.4 °F -1.1 °F 30.46 in West 5.8 mph 5.8 mph 59% 0.00 in 283.5 W/m2 CLR
12:56 10.4 °F -1.1 °F 30.45 in SW 3.5 mph 3.5 mph 59% 0.00 in 439.0 W/m2 CLR
13:02 10.4 °F -1.5 °F 30.44 in WSW 3.5 mph 3.5 mph 58% 0.00 in 832.9 W/m2 CLR
13:08 10.4 °F -1.5 °F 30.45 in West 3.5 mph 3.5 mph 58% 0.00 in 886.5 W/m2 CLR
13:16 10.4 °F -1.5 °F 30.44 in WSW 5.8 mph 5.8 mph 58% 0.00 in 886.5 W/m2 CLR
13:24 10.4 °F -2.2 °F 30.45 in West 3.5 mph 3.5 mph 56% 0.00 in 270.4 W/m2 CLR
13:30 12.2 °F -0.9 °F 30.44 in West 5.8 mph 5.8 mph 55% 0.00 in 259.3 W/m2 CLR
13:59 10.4 °F -2.6 °F 30.45 in West 5.8 mph 5.8 mph 55% 0.00 in 252.2 W/m2 CLR
14:04 12.2 °F -0.9 °F 30.45 in WNW 5.8 mph 5.8 mph 55% 0.00 in 268.0 W/m2 CLR
14:35 12.2 °F -0.9 °F 30.45 in WNW 3.5 mph 3.5 mph 55% 0.00 in 229.0 W/m2 CLR
14:48 12.2 °F -1.3 °F 30.45 in WNW 4.6 mph 4.6 mph 54% 0.00 in 187.0 W/m2 CLR
14:57 12.2 °F -1.3 °F 30.46 in NNW 3.5 mph 3.5 mph 54% 0.00 in 169.0 W/m2 CLR
15:13 12.2 °F -1.3 °F 30.46 in WNW 3.5 mph 3.5 mph 54% 0.00 in 207.8 W/m2 CLR
15:24 14.0 °F -0.8 °F 30.46 in West 3.5 mph 3.5 mph 51% 0.00 in 196.6 W/m2 CLR
15:32 12.2 °F -1.3 °F 30.46 in WNW 3.5 mph 3.5 mph 54% 0.00 in 197.7 W/m2 CLR
15:52 12.2 °F -0.9 °F 30.46 in WSW 3.5 mph 3.5 mph 55% 0.00 in 184.5 W/m2 CLR
15:58 12.2 °F -0.5 °F 30.46 in West 3.5 mph 3.5 mph 56% 0.00 in 181.5 W/m2 CLR
16:14 10.4 °F -1.5 °F 30.47 in WSW 3.5 mph 3.5 mph 58% 0.00 in 166.3 W/m2 CLR
16:22 10.4 °F -1.1 °F 30.47 in WSW 3.5 mph 3.5 mph 59% 0.00 in 6.0 W/m2 CLR
16:42 6.8 °F -2.5 °F 30.47 in WSW 2.3 mph 2.3 mph 65% 0.00 in 108.8 W/m2 CLR
17:17 5.0 °F -1.8 °F 30.48 in WSW 1.2 mph   73% 0.00 in 0.0 W/m2 CLR
17:24 5.0 °F -1.2 °F 30.48 in WSW 1.2 mph 1.2 mph 75% 0.00 in 0.0 W/m2 CLR
17:36 3.2 °F -2.9 °F 30.48 in Calm     75% 0.00 in 0.0 W/m2 CLR
17:41 3.2 °F -2.9 °F 30.48 in Calm     75% 0.00 in 0.0 W/m2 CLR
17:53 1.4 °F -3.9 °F 30.48 in Calm     78% 0.00 in 0.0 W/m2 CLR
17:59 1.4 °F -3.3 °F 30.48 in West 1.2 mph   80% 0.00 in 0.0 W/m2 CLR
18:05 1.4 °F -3.1 °F 30.48 in West 1.2 mph 1.2 mph 81% 0.00 in 0.0 W/m2 CLR
18:11 1.4 °F -3.1 °F 30.47 in West 1.2 mph   81% 0.00 in 0.0 W/m2 CLR
18:17 1.4 °F -3.1 °F 30.47 in WSW 2.3 mph 2.3 mph 81% 0.00 in 0.0 W/m2 CLR
18:25 1.4 °F -3.1 °F 30.47 in West 2.3 mph   81% 0.00 in 0.0 W/m2 CLR
18:38 -0.4 °F -4.3 °F 30.47 in Calm     83% 0.00 in 0.0 W/m2 CLR
18:44 -0.4 °F -4.3 °F 30.48 in Calm     83% 0.00 in 0.0 W/m2 CLR
18:58 -0.4 °F -3.6 °F 30.48 in Calm     86% 0.00 in 0.0 W/m2 CLR
19:15 -2.2 °F -4.9 °F 30.48 in Calm     88% 0.00 in 0.0 W/m2 CLR
19:23 -2.2 °F -4.4 °F 30.48 in Calm     90% 0.00 in 0.0 W/m2 CLR
19:34 -2.2 °F -4.4 °F 30.48 in Calm     90% 0.00 in 0.0 W/m2 CLR
19:53 -4.0 °F -6.0 °F 30.47 in Calm     91% 0.00 in 0.0 W/m2 CLR
19:59 -4.0 °F -6.0 °F 30.48 in Calm     91% 0.00 in 0.0 W/m2 CLR
20:07 -4.0 °F -6.0 °F 30.48 in Calm     91% 0.00 in 0.0 W/m2 CLR
20:16 -4.0 °F -6.2 °F 30.48 in Calm     90% 0.00 in 0.0 W/m2 CLR
20:22 -5.8 °F -8.0 °F 30.48 in Calm     90% 0.00 in 0.0 W/m2 CLR
20:27 -5.8 °F -8.0 °F 30.48 in Calm     90% 0.00 in 0.0 W/m2 CLR
20:39 -5.8 °F -8.4 °F 30.48 in Calm     88% 0.00 in 0.0 W/m2 CLR
20:44 -5.8 °F -8.4 °F 30.48 in Calm     88% 0.00 in 0.0 W/m2 CLR
20:45 -5.8 °F -8.4 °F 30.47 in Calm     88% 0.00 in 0.0 W/m2 CLR
20:55 -5.8 °F -8.0 °F 30.48 in Calm     90% 0.00 in 0.0 W/m2 CLR
21:14 -7.6 °F -9.8 °F 30.48 in Calm     90% 0.00 in 0.0 W/m2 CLR
21:25 -7.6 °F -9.8 °F 30.48 in Calm     90% 0.00 in 0.0 W/m2 CLR
21:39 -7.6 °F -9.8 °F 30.48 in Calm     90% 0.00 in 0.0 W/m2 CLR
21:45 -7.6 °F -9.8 °F 30.49 in Calm     90% 0.00 in 0.0 W/m2 CLR
21:52 -7.6 °F -9.8 °F 30.48 in Calm     90% 0.00 in 0.0 W/m2 CLR
21:58 -7.6 °F -10.2 °F 30.49 in Calm     88% 0.00 in 0.0 W/m2 CLR
22:07 -9.4 °F -12.0 °F 30.49 in Calm     88% 0.00 in 0.0 W/m2 CLR
22:12 -9.4 °F -12.0 °F 30.49 in Calm     88% 0.00 in 0.0 W/m2 CLR
22:17 -9.4 °F -12.0 °F 30.50 in Calm     88% 0.00 in 0.0 W/m2 CLR
22:37 -9.4 °F -12.0 °F 30.50 in Calm     88% 0.00 in 0.0 W/m2 CLR
23:09 -11.2 °F -14.2 °F 30.49 in Calm     86% 0.00 in 0.0 W/m2 CLR
23:24 -11.2 °F -14.2 °F 30.49 in Calm     86% 0.00 in 0.0 W/m2 CLR
23:34 -11.2 °F -13.8 °F 30.49 in Calm     88% 0.00 in 0.0 W/m2 CLR
23:45 -11.2 °F -13.8 °F 30.49 in Calm     88% 0.00 in 0.0 W/m2 CLR
Juneau County Weather
Compliments of Weather Underground - 4.75 mb